Time;durP1;ratioP1;P1;durP2;ratioP2;P2;SDS_P1;SDS_P2;PMS_P1;PMS_P2;Temp;Humidity;BMP_temperature;BMP_pressure;BME280_temperature;BME280_humidity;BME280_pressure;Samples;Min_cycle;Max_cycle;Signal;HPM_P1;HPM_P2
2022/06/06 00:01:27;;;;;;;27.90;18.70;;;;;;;20.97;100.00;100939.66;5114991;28;20027;-75
2022/06/06 00:04:13;;;;;;;28.02;19.88;;;;;;;21.07;100.00;100945.34;5113273;28;20050;-75
2022/06/06 00:06:59;;;;;;;28.25;19.02;;;;;;;20.67;100.00;100951.13;5114942;28;20106;-75
2022/06/06 00:09:45;;;;;;;27.25;19.45;;;;;;;20.47;100.00;100952.22;5115019;28;20115;-73
2022/06/06 00:12:31;;;;;;;28.00;19.38;;;;;;;20.70;100.00;100961.63;5114487;28;20374;-75
2022/06/06 00:15:17;;;;;;;26.17;19.55;;;;;;;20.76;100.00;100969.25;5115009;28;20031;-75
2022/06/06 00:18:04;;;;;;;25.38;17.95;;;;;;;20.62;100.00;100969.16;5114901;28;20032;-75
2022/06/06 00:20:49;;;;;;;27.05;19.42;;;;;;;20.55;100.00;100960.66;5114552;28;20050;-75
2022/06/06 00:23:36;;;;;;;29.55;20.33;;;;;;;20.64;100.00;100957.50;5114906;28;20092;-76
2022/06/06 00:26:22;;;;;;;29.17;18.83;;;;;;;20.78;100.00;100965.56;5115000;28;20380;-76
2022/06/06 00:29:12;;;;;;;27.75;19.13;;;;;;;20.80;100.00;100942.38;5113678;28;20129;-76
2022/06/06 00:35:05;;;;;;;27.15;17.33;;;;;;;20.93;100.00;100914.13;5114312;28;20077;-75
2022/06/06 00:37:51;;;;;;;22.65;16.90;;;;;;;20.77;100.00;100913.25;5113941;28;20443;-74
2022/06/06 00:40:36;;;;;;;22.17;17.23;;;;;;;20.83;100.00;100909.38;5113508;28;20028;-75
2022/06/06 00:43:23;;;;;;;19.55;16.05;;;;;;;20.68;100.00;100895.13;5114643;28;20092;-75
2022/06/06 00:46:11;;;;;;;24.20;16.67;;;;;;;20.67;100.00;100897.88;5114390;28;20042;-76
2022/06/06 00:48:57;;;;;;;20.80;16.30;;;;;;;20.60;100.00;100900.03;5115060;28;20554;-76
2022/06/06 00:51:44;;;;;;;22.05;16.70;;;;;;;20.64;100.00;100892.72;5115076;28;20042;-75
2022/06/06 00:54:30;;;;;;;21.55;17.25;;;;;;;20.67;100.00;100897.88;5113471;28;20035;-76
2022/06/06 00:57:22;;;;;;;22.67;17.23;;;;;;;20.48;100.00;100910.47;5115053;28;20448;-76
2022/06/06 01:00:11;;;;;;;28.45;19.25;;;;;;;20.42;100.00;100914.38;5114137;28;20031;-77
2022/06/06 01:03:02;;;;;;;29.77;17.75;;;;;;;20.39;100.00;100911.88;5114949;28;20102;-76
2022/06/06 01:05:49;;;;;;;22.30;16.30;;;;;;;20.22;100.00;100925.22;5102132;28;20024;-76
2022/06/06 01:08:36;;;;;;;22.45;15.05;;;;;;;20.03;100.00;100942.19;5117311;28;20027;-75
2022/06/06 01:11:22;;;;;;;17.30;13.55;;;;;;;20.15;100.00;100938.91;5103405;28;20032;-76
2022/06/06 01:14:11;;;;;;;17.33;13.68;;;;;;;20.16;100.00;100937.97;5118392;28;20448;-76
2022/06/06 01:17:12;;;;;;;17.55;13.60;;;;;;;20.22;100.00;100925.22;5117449;28;20055;-75
2022/06/06 01:20:03;;;;;;;14.10;11.38;;;;;;;20.43;100.00;100910.75;5117433;28;20072;-76
2022/06/06 01:23:23;;;;;;;17.17;12.18;;;;;;;20.11;100.00;100916.94;5118192;28;20059;-75
2022/06/06 01:26:40;;;;;;;12.13;10.50;;;;;;;20.02;100.00;100917.41;5102060;28;20051;-74
2022/06/06 01:29:29;;;;;;;13.07;10.30;;;;;;;19.87;100.00;100909.38;5101866;28;20028;-74
2022/06/06 01:32:19;;;;;;;11.93;9.90;;;;;;;19.95;100.00;100909.81;5117237;28;20019;-74
2022/06/06 01:35:06;;;;;;;11.90;9.50;;;;;;;20.10;100.00;100903.72;5117657;28;20024;-74
2022/06/06 01:37:51;;;;;;;12.55;9.90;;;;;;;19.88;100.00;100896.00;5103622;28;20111;-75
2022/06/06 01:40:47;;;;;;;12.00;10.30;;;;;;;19.99;100.00;100893.63;5102589;28;20041;-75
2022/06/06 01:43:41;;;;;;;17.77;9.98;;;;;;;19.86;100.00;100881.94;5116236;28;20024;-75
2022/06/06 01:46:33;;;;;;;14.75;10.20;;;;;;;20.06;100.00;100895.03;5103131;28;20023;-75
2022/06/06 01:49:20;;;;;;;15.48;10.82;;;;;;;19.90;100.00;100886.16;5102914;28;20058;-75
2022/06/06 01:52:10;;;;;;;15.60;10.85;;;;;;;20.23;100.00;100887.03;5116827;28;20027;-74
2022/06/06 01:54:57;;;;;;;13.90;10.18;;;;;;;20.02;100.00;100895.25;5117156;28;20039;-74
2022/06/06 01:57:45;;;;;;;13.63;10.15;;;;;;;20.07;100.00;100898.53;5117159;28;20024;-75
2022/06/06 02:00:33;;;;;;;16.15;9.75;;;;;;;19.88;100.00;100872.06;5116333;28;20024;-75
2022/06/06 02:03:20;;;;;;;11.90;9.35;;;;;;;20.22;100.00;100853.38;5102006;28;20069;-74
2022/06/06 02:06:06;;;;;;;13.48;9.38;;;;;;;20.15;100.00;100845.81;5116864;28;20027;-75
2022/06/06 02:08:52;;;;;;;11.98;9.00;;;;;;;20.19;100.00;100852.69;5116771;28;20106;-74
2022/06/06 02:11:39;;;;;;;10.85;8.82;;;;;;;20.55;100.00;100856.84;5116957;28;20032;-74
2022/06/06 02:14:24;;;;;;;10.30;9.18;;;;;;;20.68;100.00;100841.00;5115051;28;20509;-75
2022/06/06 02:17:10;;;;;;;10.82;8.45;;;;;;;20.62;100.00;100833.38;5117321;28;20019;-75
2022/06/06 02:19:56;;;;;;;8.55;7.30;;;;;;;20.58;100.00;100813.22;5117113;28;20107;-74
2022/06/06 02:22:43;;;;;;;10.15;7.15;;;;;;;20.50;100.00;100780.84;5116820;28;20055;-76
2022/06/06 02:25:30;;;;;;;8.27;6.45;;;;;;;20.51;100.00;100777.22;5115801;28;20053;-75
2022/06/06 02:28:16;;;;;;;9.25;6.72;;;;;;;20.71;100.00;100787.59;5116782;28;20062;-75
2022/06/06 02:31:03;;;;;;;7.68;6.88;;;;;;;20.65;100.00;100775.47;5102416;28;20026;-74
2022/06/06 02:33:49;;;;;;;8.88;7.32;;;;;;;20.75;100.00;100794.44;5116076;28;20042;-74
2022/06/06 02:36:35;;;;;;;8.23;6.57;;;;;;;20.71;100.00;100776.94;5101391;28;20333;-74
2022/06/06 02:39:21;;;;;;;8.40;7.00;;;;;;;20.72;100.00;100872.72;5116415;28;20519;-74
2022/06/06 02:42:07;;;;;;;8.60;7.50;;;;;;;20.30;100.00;101012.63;5116214;28;20144;-74
2022/06/06 02:44:53;;;;;;;12.30;6.65;;;;;;;20.11;100.00;101003.88;5115622;28;20031;-74
2022/06/06 02:47:38;;;;;;;14.45;3.55;;;;;;;16.83;100.00;101127.28;5116120;28;20028;-77
2022/06/06 02:50:27;;;;;;;22.77;2.55;;;;;;;14.77;100.00;101102.34;5101996;28;20027;-79
2022/06/06 02:53:13;;;;;;;8.18;2.03;;;;;;;16.49;100.00;101035.97;5101283;28;20023;-74
2022/06/06 02:55:59;;;;;;;7.93;1.30;;;;;;;16.97;100.00;100991.78;5102044;28;20027;-75
2022/06/06 02:58:46;;;;;;;6.60;1.38;;;;;;;17.49;100.00;101016.13;5116169;28;20103;-75
2022/06/06 03:01:32;;;;;;;3.20;1.10;;;;;;;17.77;100.00;101005.28;5117001;28;20074;-76
2022/06/06 03:04:19;;;;;;;4.13;1.42;;;;;;;18.11;100.00;101018.81;5115961;28;20047;-76
2022/06/06 03:07:18;;;;;;;3.85;1.60;;;;;;;18.11;100.00;101005.53;5101441;28;20110;-76
2022/06/06 03:10:21;;;;;;;3.65;1.60;;;;;;;18.09;100.00;101007.41;5115851;28;20023;-75
2022/06/06 03:13:21;;;;;;;3.05;2.00;;;;;;;18.15;100.00;101007.13;5116190;28;20027;-76
2022/06/06 03:23:18;;;;;;;3.92;2.20;;;;;;;18.39;100.00;100985.72;5116047;28;20035;-76
2022/06/06 03:26:25;;;;;;;3.38;2.50;;;;;;;18.39;100.00;100974.25;5113988;28;20035;-75
2022/06/06 03:29:24;;;;;;;5.32;3.10;;;;;;;18.44;100.00;100975.75;5115658;28;20160;-75
2022/06/06 03:32:47;;;;;;;10.32;3.65;;;;;;;18.37;100.00;100960.19;5115909;28;20106;-75
2022/06/06 03:36:05;;;;;;;10.85;4.47;;;;;;;18.82;100.00;100958.06;5115490;28;20024;-75
2022/06/06 03:39:22;;;;;;;13.25;8.05;;;;;;;18.86;100.00;100955.16;5073537;28;20120;-76
2022/06/06 03:42:17;;;;;;;7.50;3.83;;;;;;;18.77;100.00;100957.44;5108062;28;20111;-75
2022/06/06 03:45:34;;;;;;;5.30;4.05;;;;;;;18.92;100.00;100952.25;5115744;28;20039;-75
2022/06/06 03:48:30;;;;;;;6.20;4.65;;;;;;;18.98;100.00;100951.94;5114480;28;20096;-75
2022/06/06 03:51:29;;;;;;;6.53;4.75;;;;;;;18.91;100.00;100965.59;5115466;28;20024;-75
2022/06/06 03:54:40;;;;;;;9.40;6.38;;;;;;;19.21;100.00;100985.38;5114792;28;20023;-75
2022/06/06 03:57:26;;;;;;;12.27;8.40;;;;;;;19.35;100.00;100998.88;5115055;28;20058;-74
2022/06/06 04:00:15;;;;;;;9.40;6.57;;;;;;;19.52;100.00;101004.22;5114636;28;20031;-76
2022/06/06 04:03:04;;;;;;;8.93;7.60;;;;;;;19.28;100.00;101016.03;5115284;28;20419;-75
2022/06/06 04:05:54;;;;;;;12.38;8.80;;;;;;;19.24;100.00;101017.13;5114064;28;20032;-76
2022/06/06 04:08:40;;;;;;;11.55;9.25;;;;;;;19.23;100.00;101026.00;5115357;28;20028;-75
2022/06/06 04:11:29;;;;;;;12.57;10.32;;;;;;;19.20;100.00;101032.31;5100319;28;20023;-75
2022/06/06 04:14:21;;;;;;;12.60;11.15;;;;;;;19.21;100.00;101038.50;5114997;28;20161;-74
2022/06/06 04:17:35;;;;;;;13.27;11.43;;;;;;;19.46;100.00;101033.75;5114581;28;20023;-77
2022/06/06 04:20:26;;;;;;;15.70;13.55;;;;;;;19.25;100.00;101033.94;5113617;28;20028;-73
2022/06/06 04:23:32;;;;;;;18.45;15.40;;;;;;;19.22;100.00;101026.94;5114567;28;20508;-72
2022/06/06 04:26:58;;;;;;;21.20;17.05;;;;;;;19.24;100.00;101037.53;5114255;28;20464;-74
2022/06/06 04:29:59;;;;;;;25.33;19.60;;;;;;;19.27;100.00;101046.22;5013082;28;20025;-75
2022/06/06 04:33:25;;;;;;;28.05;18.95;;;;;;;19.34;100.00;101049.44;5114882;28;20034;-74
2022/06/06 04:36:21;;;;;;;28.25;20.98;;;;;;;19.53;100.00;101050.28;5078814;28;20108;-74
2022/06/06 04:39:37;;;;;;;25.13;19.92;;;;;;;19.78;100.00;101051.66;5114411;28;20042;-74
2022/06/06 04:42:39;;;;;;;25.83;20.90;;;;;;;19.84;100.00;101048.66;5097830;28;20039;-74
2022/06/06 04:45:38;;;;;;;27.90;20.58;;;;;;;19.42;100.00;101064.09;5113099;28;20031;-74
2022/06/06 04:48:25;;;;;;;26.98;21.85;;;;;;;19.71;100.00;101068.84;5112760;28;20040;-74
2022/06/06 04:51:16;;;;;;;28.75;23.02;;;;;;;19.80;100.00;101079.00;5113928;28;20055;-74
2022/06/06 04:54:03;;;;;;;28.33;24.05;;;;;;;19.80;100.00;101083.50;5113320;28;20453;-74
2022/06/06 04:56:50;;;;;;;27.58;22.85;;;;;;;20.26;100.00;101091.78;5113717;28;20451;-74
2022/06/06 04:59:37;;;;;;;26.52;23.10;;;;;;;20.03;100.00;101084.06;5113257;28;20023;-74
2022/06/06 05:02:25;;;;;;;26.75;23.20;;;;;;;19.91;100.00;101076.69;5113505;28;20164;-75
2022/06/06 05:05:11;;;;;;;31.60;24.48;;;;;;;19.90;100.00;101092.72;5113749;28;20096;-74
2022/06/06 05:08:12;;;;;;;30.88;24.65;;;;;;;19.77;100.00;101099.59;5113436;28;20047;-75
2022/06/06 05:11:45;;;;;;;28.25;24.13;;;;;;;20.02;100.00;101108.94;5113857;28;20038;-74
2022/06/06 05:14:46;;;;;;;23.85;21.15;;;;;;;19.98;100.00;101101.19;5082154;28;20465;-75
2022/06/06 05:17:59;;;;;;;26.15;21.77;;;;;;;20.09;100.00;101110.38;5113626;28;20050;-74
2022/06/06 05:21:10;;;;;;;19.20;16.83;;;;;;;19.95;100.00;101099.53;5114223;28;20024;-74
2022/06/06 05:24:11;;;;;;;21.95;17.42;;;;;;;20.15;100.00;101106.53;5112865;28;20111;-74
2022/06/06 05:27:06;;;;;;;16.48;14.68;;;;;;;19.84;100.00;101096.53;5113801;28;20060;-74
2022/06/06 05:30:10;;;;;;;17.20;13.85;;;;;;;20.07;100.00;101104.25;5113096;28;20136;-75
2022/06/06 05:33:19;;;;;;;19.00;14.88;;;;;;;20.13;100.00;101109.28;5113550;28;20368;-75
2022/06/06 05:36:34;;;;;;;16.70;13.40;;;;;;;19.95;100.00;101115.50;5098396;28;20028;-75
2022/06/06 05:39:36;;;;;;;16.63;13.95;;;;;;;20.25;100.00;101115.78;5062430;28;20046;-74
2022/06/06 05:42:34;;;;;;;17.73;13.68;;;;;;;20.46;100.00;101098.72;5097411;28;20119;-74
2022/06/06 05:45:45;;;;;;;18.65;14.68;;;;;;;20.73;100.00;101115.91;5114311;28;20337;-74
2022/06/06 05:49:08;;;;;;;14.57;12.48;;;;;;;20.58;100.00;101119.38;5112454;28;20031;-75
2022/06/06 05:52:10;;;;;;;16.17;13.40;;;;;;;21.06;100.00;101133.63;5116241;28;20453;-75
2022/06/06 05:55:21;;;;;;;17.27;14.15;;;;;;;21.24;100.00;101137.13;5102854;28;20118;-76
2022/06/06 05:58:32;;;;;;;15.65;12.40;;;;;;;20.77;100.00;101141.44;5116667;28;20487;-75
2022/06/06 06:01:43;;;;;;;15.32;13.10;;;;;;;20.64;100.00;101148.34;5116013;28;20490;-74
2022/06/06 06:04:53;;;;;;;14.68;12.85;;;;;;;20.75;100.00;101168.16;5115441;28;20035;-74
2022/06/06 06:07:58;;;;;;;16.48;13.32;;;;;;;20.82;100.00;101163.38;5101294;28;20387;-74
2022/06/06 06:10:57;;;;;;;18.92;14.00;;;;;;;20.64;100.00;101164.31;5117388;28;20038;-74
2022/06/06 06:14:04;;;;;;;19.20;14.55;;;;;;;20.89;100.00;101164.78;5116506;28;20122;-75
2022/06/06 06:16:58;;;;;;;17.05;14.50;;;;;;;20.77;100.00;101152.94;5115952;28;20020;-74
2022/06/06 06:20:00;;;;;;;17.05;14.82;;;;;;;20.88;100.00;101157.69;5117028;28;20402;-74
2022/06/06 06:22:51;;;;;;;17.25;13.13;;;;;;;20.91;100.00;101158.47;5116730;28;20032;-74
2022/06/06 06:25:38;;;;;;;16.85;14.13;;;;;;;21.11;100.00;101158.25;5115602;28;20058;-74
2022/06/06 06:28:26;;;;;;;14.98;13.20;;;;;;;20.80;100.00;101150.13;5116065;28;20032;-74
2022/06/06 06:31:31;;;;;;;16.70;14.10;;;;;;;20.77;100.00;101160.09;5103174;28;20102;-74
2022/06/06 06:34:28;;;;;;;20.33;14.50;;;;;;;20.54;100.00;101157.75;5115561;28;20039;-74
2022/06/06 06:37:26;;;;;;;18.50;14.63;;;;;;;20.47;100.00;101151.88;5115571;28;20019;-74
2022/06/06 06:40:23;;;;;;;19.77;14.90;;;;;;;20.58;100.00;101154.84;5115582;28;20356;-74
2022/06/06 06:43:44;;;;;;;20.73;16.35;;;;;;;20.75;100.00;101138.88;5115572;28;20443;-75
2022/06/06 06:46:41;;;;;;;21.20;16.80;;;;;;;20.97;100.00;101131.47;5116089;28;20023;-75
2022/06/06 06:49:51;;;;;;;24.35;17.05;;;;;;;21.16;100.00;101134.88;5103582;28;20035;-75
2022/06/06 06:53:13;;;;;;;21.80;17.42;;;;;;;21.60;100.00;101125.28;5115523;28;20409;-74
2022/06/06 06:56:25;;;;;;;18.02;14.25;;;;;;;21.58;100.00;101115.66;5115181;28;20028;-75
2022/06/06 06:59:23;;;;;;;20.10;14.77;;;;;;;21.99;100.00;101119.53;5114968;28;20106;-75
2022/06/06 07:09:15;;;;;;;13.18;11.68;;;;;;;21.88;100.00;101122.81;5116412;28;20027;-74
2022/06/06 07:12:31;;;;;;;13.10;11.70;;;;;;;22.27;100.00;101112.47;5115771;28;20042;-75
2022/06/06 07:15:47;;;;;;;13.00;11.70;;;;;;;21.76;100.00;101119.97;5099989;28;20031;-75
2022/06/06 07:18:37;;;;;;;14.05;11.55;;;;;;;22.05;100.00;101119.16;5100371;28;20027;-75
2022/06/06 07:21:25;;;;;;;14.25;10.75;;;;;;;22.42;100.00;101121.41;5114461;28;20023;-75
2022/06/06 07:24:16;;;;;;;14.80;10.75;;;;;;;22.65;100.00;101113.75;5113958;28;20031;-74
2022/06/06 07:27:02;;;;;;;12.45;9.93;;;;;;;22.82;100.00;101118.03;5115429;28;20034;-75
2022/06/06 07:29:48;;;;;;;12.13;10.25;;;;;;;22.48;100.00;101119.25;5115817;28;20092;-75
2022/06/06 07:33:05;;;;;;;13.05;9.25;;;;;;;23.00;100.00;101124.94;5116678;28;20043;-74
2022/06/06 07:36:06;;;;;;;9.00;7.90;;;;;;;22.81;100.00;101114.53;5116077;28;20475;-74
2022/06/06 07:39:10;;;;;;;10.45;8.45;;;;;;;22.36;100.00;101125.28;5115814;28;20028;-74
2022/06/06 07:42:15;;;;;;;11.85;8.30;;;;;;;22.49;100.00;101125.44;5114633;28;20015;-74
2022/06/06 07:45:40;;;;;;;10.10;7.75;;;;;;;22.74;100.00;101126.53;5116012;28;20027;-74
2022/06/06 07:48:54;;;;;;;8.73;6.63;;;;;;;23.03;100.00;101132.75;5000700;28;20041;-74
2022/06/06 07:51:57;;;;;;;9.40;6.40;;;;;;;23.08;100.00;101134.16;5115751;28;20358;-73
2022/06/06 07:54:58;;;;;;;11.05;5.90;;;;;;;22.84;100.00;101138.38;5115097;28;20059;-74
2022/06/06 07:58:01;;;;;;;6.70;5.18;;;;;;;22.58;100.00;101139.09;5115943;28;20023;-73
2022/06/06 08:01:13;;;;;;;7.53;5.13;;;;;;;22.91;100.00;101137.03;5115072;28;20032;-74
2022/06/06 08:04:18;;;;;;;5.47;4.93;;;;;;;23.85;100.00;101145.28;5113722;28;20019;-74
2022/06/06 08:07:15;;;;;;;8.43;5.03;;;;;;;24.26;100.00;101134.56;5100672;28;20020;-73
2022/06/06 08:10:16;;;;;;;6.88;5.20;;;;;;;24.73;100.00;101150.94;5115360;28;20020;-74
2022/06/06 08:13:20;;;;;;;7.20;4.85;;;;;;;23.56;100.00;101146.31;5114509;28;20110;-73
2022/06/06 08:16:28;;;;;;;10.10;4.93;;;;;;;23.48;100.00;101148.63;5115411;28;20039;-73
2022/06/06 08:19:14;;;;;;;9.07;4.55;;;;;;;23.23;100.00;101153.81;5115682;28;20085;-74
2022/06/06 08:22:01;;;;;;;6.63;5.03;;;;;;;23.20;100.00;101148.63;5114914;28;20039;-73
2022/06/06 08:24:51;;;;;;;10.65;4.65;;;;;;;24.03;100.00;101149.44;5114806;28;20356;-74
2022/06/06 08:27:39;;;;;;;11.23;4.68;;;;;;;24.51;100.00;101148.84;5094097;28;20477;-72
2022/06/06 08:30:24;;;;;;;6.60;4.80;;;;;;;23.88;100.00;101138.84;5114627;28;20470;-73
2022/06/06 08:33:11;;;;;;;9.65;5.03;;;;;;;24.29;100.00;101150.38;5114939;28;20336;-74
2022/06/06 08:36:18;;;;;;;9.70;5.47;;;;;;;23.99;100.00;101161.31;5099816;28;20020;-73
2022/06/06 08:39:41;;;;;;;12.73;5.35;;;;;;;24.53;100.00;101165.69;5115070;28;20024;-73
2022/06/06 08:42:39;;;;;;;10.93;5.15;;;;;;;24.60;100.00;101158.94;5100073;28;20440;-74
2022/06/06 08:45:43;;;;;;;6.88;4.43;;;;;;;24.53;100.00;101164.81;5113987;28;20066;-74
2022/06/06 08:48:51;;;;;;;6.97;4.30;;;;;;;24.71;100.00;101166.28;5115485;28;20501;-73
2022/06/06 08:51:40;;;;;;;12.63;3.80;;;;;;;24.58;100.00;101170.69;5115791;28;20020;-72
2022/06/06 08:55:14;;;;;;;7.85;3.55;;;;;;;24.05;100.00;101166.28;5102776;28;20019;-75
2022/06/06 08:58:27;;;;;;;6.38;4.10;;;;;;;24.98;100.00;101175.06;5119074;28;20339;-74
2022/06/06 09:01:22;;;;;;;5.90;4.28;;;;;;;24.12;100.00;101174.75;5115861;28;20039;-73
2022/06/06 09:04:49;;;;;;;7.03;3.70;;;;;;;24.33;100.00;101162.63;5115802;28;20035;-76
2022/06/06 09:08:07;;;;;;;8.70;3.90;;;;;;;24.72;100.00;101163.50;5034287;28;20033;-73
2022/06/06 09:11:02;;;;;;;6.53;3.88;;;;;;;24.44;100.00;101168.13;5116707;28;20032;-74
2022/06/06 09:14:10;;;;;;;8.02;4.10;;;;;;;24.29;100.00;101172.69;5100874;28;20035;-74
2022/06/06 09:17:27;;;;;;;14.15;5.53;;;;;;;24.42;100.00;101173.56;5117008;28;20081;-73
2022/06/06 09:20:18;;;;;;;5.32;3.70;;;;;;;24.37;100.00;101172.16;5117415;28;20026;-75
2022/06/06 09:23:23;;;;;;;7.30;4.00;;;;;;;24.16;100.00;101169.13;5118286;28;20110;-73
2022/06/06 09:26:53;;;;;;;5.53;3.60;;;;;;;24.49;100.00;101168.66;5108468;28;20126;-73
2022/06/06 09:30:06;;;;;;;11.02;4.07;;;;;;;24.45;100.00;101164.47;5125451;28;20031;-72
2022/06/06 09:33:32;;;;;;;3.92;3.50;;;;;;;24.16;100.00;101174.47;5123135;28;20039;-73
2022/06/06 09:36:25;;;;;;;7.03;3.22;;;;;;;25.01;100.00;101177.56;5122767;28;20038;-74
2022/06/06 09:39:45;;;;;;;5.70;2.70;;;;;;;24.85;100.00;101169.72;5120613;28;20024;-73
2022/06/06 09:42:49;;;;;;;6.97;3.10;;;;;;;25.07;100.00;101167.25;5125939;28;20031;-72
2022/06/06 09:46:08;;;;;;;6.47;3.33;;;;;;;25.21;100.00;101174.31;5123014;28;20418;-73
2022/06/06 09:49:28;;;;;;;4.15;3.75;;;;;;;25.04;100.00;101171.97;5115752;28;20048;-74
2022/06/06 09:52:19;;;;;;;5.32;2.88;;;;;;;25.66;100.00;101165.69;5122487;28;20046;-74
2022/06/06 09:59:01;;;;;;;5.95;2.80;;;;;;;25.18;100.00;101161.13;5126199;28;20045;-72
2022/06/06 10:02:21;;;;;;;8.55;3.10;;;;;;;25.62;100.00;101174.94;5120539;28;20067;-73
2022/06/06 10:05:48;;;;;;;5.32;3.72;;;;;;;25.81;100.00;101173.50;5118240;28;20050;-75
2022/06/06 10:09:13;;;;;;;3.75;3.40;;;;;;;25.64;100.00;101165.81;5117725;28;20092;-74
2022/06/06 10:12:17;;;;;;;4.55;2.90;;;;;;;25.18;100.00;101164.69;5118190;28;20165;-73
2022/06/06 10:15:28;;;;;;;7.63;3.00;;;;;;;26.07;100.00;101156.34;5104637;28;20024;-75
2022/06/06 10:18:54;;;;;;;3.72;3.20;;;;;;;25.40;100.00;101164.06;5119044;28;20030;-74
2022/06/06 10:21:55;;;;;;;10.05;3.00;;;;;;;25.45;100.00;101148.47;5105359;28;20347;-75
2022/06/06 10:25:07;;;;;;;11.80;2.70;;;;;;;25.87;100.00;101139.94;5119750;28;20115;-75
2022/06/06 10:27:59;;;;;;;4.45;2.50;;;;;;;25.54;100.00;101143.31;5117870;28;20393;-74
2022/06/06 10:31:03;;;;;;;5.30;3.00;;;;;;;26.16;100.00;101138.69;5115745;28;20024;-75
2022/06/06 10:34:20;;;;;;;9.77;3.92;;;;;;;25.92;100.00;101146.72;5117870;28;20080;-77
2022/06/06 10:37:33;;;;;;;8.52;3.83;;;;;;;25.60;100.00;101147.38;5117097;28;20123;-75
2022/06/06 10:40:43;;;;;;;6.82;3.35;;;;;;;24.81;100.00;101140.53;5103140;28;20023;-75
2022/06/06 10:43:49;;;;;;;5.45;3.00;;;;;;;26.04;100.00;101137.78;5117502;28;20035;-75
2022/06/06 10:46:50;;;;;;;4.88;3.22;;;;;;;25.98;100.00;101142.75;5101268;28;20035;-75
2022/06/06 10:49:53;;;;;;;4.40;3.00;;;;;;;26.09;100.00;101142.81;5117297;28;20027;-75
2022/06/06 10:52:51;;;;;;;3.38;3.08;;;;;;;26.30;100.00;101138.50;5101804;28;20023;-75
2022/06/06 10:55:43;;;;;;;3.60;3.25;;;;;;;26.25;100.00;101138.88;5102004;28;20368;-75
2022/06/06 10:58:41;;;;;;;4.55;3.55;;;;;;;26.08;100.00;101133.88;5116600;28;20033;-76
2022/06/06 11:02:04;;;;;;;9.55;6.93;;;;;;;25.54;100.00;101154.03;5117137;28;20387;-75
2022/06/06 11:05:31;;;;;;;7.82;4.97;;;;;;;25.53;100.00;101146.97;5116540;28;20059;-75
2022/06/06 11:08:42;;;;;;;3.60;3.03;;;;;;;24.97;100.00;101143.88;5083124;28;20345;-76
2022/06/06 11:11:46;;;;;;;5.80;3.00;;;;;;;26.26;98.69;101140.56;5101891;28;20037;-75
2022/06/06 11:14:39;;;;;;;4.80;2.67;;;;;;;26.90;96.89;101139.19;5116389;28;20110;-75
2022/06/06 11:17:36;;;;;;;3.00;2.70;;;;;;;26.15;96.81;101139.66;5115889;28;20047;-75
2022/06/06 11:20:59;;;;;;;6.65;2.70;;;;;;;26.47;100.00;101143.44;5116569;28;20035;-75
2022/06/06 11:24:01;;;;;;;3.90;2.90;;;;;;;26.56;99.68;101142.75;5115548;28;20024;-76
2022/06/06 11:26:57;;;;;;;4.22;2.58;;;;;;;26.50;99.83;101138.72;5101939;28;20126;-75
2022/06/06 11:30:04;;;;;;;5.38;2.75;;;;;;;27.06;97.95;101131.63;5115929;28;20462;-76
2022/06/06 11:33:10;;;;;;;3.42;2.50;;;;;;;26.63;91.02;101138.63;5100950;28;20023;-76
2022/06/06 11:36:20;;;;;;;7.85;2.83;;;;;;;26.61;92.87;101132.53;5115552;28;20030;-76
2022/06/06 11:39:24;;;;;;;9.07;3.75;;;;;;;26.50;98.06;101132.47;5114609;28;20359;-75
2022/06/06 11:42:37;;;;;;;21.52;4.10;;;;;;;26.89;98.43;101134.78;5101067;28;20045;-75
2022/06/06 11:45:39;;;;;;;5.35;2.70;;;;;;;26.53;95.40;101133.06;5116518;28;20042;-76
2022/06/06 11:48:43;;;;;;;2.97;2.50;;;;;;;25.80;96.98;101136.03;5114720;28;20031;-77
2022/06/06 11:51:47;;;;;;;14.35;3.20;;;;;;;26.45;100.00;101127.44;5115290;28;20100;-76
2022/06/06 11:54:44;;;;;;;6.63;2.70;;;;;;;26.08;98.70;101117.75;5115780;28;20114;-76
2022/06/06 11:57:33;;;;;;;7.55;3.10;;;;;;;26.81;97.36;101121.09;5115688;28;20019;-76
2022/06/06 12:00:21;;;;;;;5.07;2.95;;;;;;;26.62;98.41;101112.75;5115186;28;20039;-75
2022/06/06 12:03:34;;;;;;;3.80;2.92;;;;;;;26.33;98.32;101112.25;5100673;28;20034;-76
2022/06/06 12:06:38;;;;;;;7.05;3.50;;;;;;;25.88;99.62;101110.31;5099894;28;20028;-75
2022/06/06 12:09:57;;;;;;;7.30;3.22;;;;;;;25.66;97.14;101120.06;5100581;28;20035;-76
2022/06/06 12:13:10;;;;;;;8.48;3.47;;;;;;;26.49;95.54;101110.09;5115077;28;20039;-76
2022/06/06 12:16:11;;;;;;;6.07;2.70;;;;;;;27.25;87.97;101110.38;5099661;28;20073;-75
2022/06/06 12:19:19;;;;;;;5.40;2.78;;;;;;;27.28;84.73;101111.00;5114994;28;20024;-76
2022/06/06 12:22:42;;;;;;;23.63;4.57;;;;;;;26.81;87.78;101103.09;5115513;28;20027;-76
2022/06/06 12:25:49;;;;;;;10.43;3.10;;;;;;;27.12;84.70;101107.78;5100537;28;20051;-76
2022/06/06 12:28:55;;;;;;;13.40;3.15;;;;;;;27.37;86.09;101099.47;5114628;28;20035;-75
2022/06/06 12:32:04;;;;;;;4.40;2.97;;;;;;;27.18;77.92;101103.75;5115057;28;20112;-75
2022/06/06 12:35:03;;;;;;;4.30;2.90;;;;;;;27.24;75.29;101104.13;5114062;28;20417;-75
2022/06/06 12:38:25;;;;;;;3.13;2.45;;;;;;;26.77;78.47;101095.41;5100207;28;20019;-76
2022/06/06 12:41:11;;;;;;;2.80;2.50;;;;;;;27.19;79.20;101100.94;5113612;28;20062;-75
2022/06/06 12:44:28;;;;;;;4.72;3.30;;;;;;;27.21;77.10;101114.31;5115126;28;20039;-76
2022/06/06 12:47:30;;;;;;;6.10;2.70;;;;;;;27.25;78.24;101118.47;5103560;28;20051;-74
2022/06/06 12:50:36;;;;;;;12.27;3.20;;;;;;;27.41;83.28;101106.31;5114820;28;20023;-75
2022/06/06 12:53:49;;;;;;;6.90;2.88;;;;;;;27.15;85.42;101110.22;5114514;28;20444;-75
2022/06/06 12:56:48;;;;;;;5.03;2.45;;;;;;;27.13;76.26;101100.56;5100033;28;20051;-75
2022/06/06 13:00:01;;;;;;;4.22;2.95;;;;;;;26.69;80.49;101089.78;5102198;28;20023;-75
2022/06/06 13:02:47;;;;;;;9.00;3.22;;;;;;;27.13;85.50;101087.13;5118879;28;20032;-75
2022/06/06 13:05:39;;;;;;;8.02;2.67;;;;;;;27.33;81.84;101086.41;5103816;28;20080;-73
2022/06/06 13:08:40;;;;;;;12.98;3.72;;;;;;;27.32;79.38;101085.53;5119210;28;20042;-74
2022/06/06 13:11:47;;;;;;;9.82;3.42;;;;;;;27.19;82.43;101081.22;5118564;28;20039;-74
2022/06/06 13:14:51;;;;;;;12.93;3.03;;;;;;;27.95;78.17;101083.94;5118668;28;20050;-75
2022/06/06 13:18:09;;;;;;;7.28;3.58;;;;;;;27.52;77.52;101083.91;5118513;28;20020;-75
2022/06/06 13:20:54;;;;;;;36.28;26.65;;;;;;;27.80;80.99;101067.19;5118937;28;20070;-74
2022/06/06 13:23:51;;;;;;;6.43;3.00;;;;;;;27.31;77.55;101064.13;5118421;28;20463;-75
2022/06/06 13:26:47;;;;;;;5.22;2.83;;;;;;;27.19;77.65;101068.66;5104021;28;20039;-70
2022/06/06 13:29:35;;;;;;;7.90;3.05;;;;;;;27.39;79.84;101062.53;5090037;28;20106;-74
2022/06/06 13:32:39;;;;;;;6.25;3.20;;;;;;;27.27;78.69;101057.28;5118117;28;20023;-75
2022/06/06 13:35:28;;;;;;;4.13;3.00;;;;;;;27.39;82.38;101059.84;5118127;28;20076;-76
2022/06/06 13:38:43;;;;;;;14.63;3.60;;;;;;;27.10;78.51;101066.72;5118124;28;20062;-76
2022/06/06 13:42:00;;;;;;;9.23;3.40;;;;;;;27.53;78.05;101056.88;5103819;28;20038;-76
2022/06/06 13:45:04;;;;;;;4.47;2.90;;;;;;;27.17;81.30;101056.31;5102505;28;20063;-75
2022/06/06 13:47:55;;;;;;;9.23;3.05;;;;;;;27.14;80.73;101056.53;5117718;28;20088;-74
2022/06/06 13:51:18;;;;;;;5.18;3.42;;;;;;;28.04;78.23;101045.47;5118162;28;20031;-75
2022/06/06 13:54:05;;;;;;;3.72;3.22;;;;;;;27.93;75.60;101042.81;5117728;28;20463;-75
2022/06/06 13:57:16;;;;;;;6.95;3.30;;;;;;;26.95;82.83;101032.97;5117300;28;20165;-75
2022/06/06 14:00:19;;;;;;;9.65;7.50;;;;;;;26.90;85.36;101051.31;5103098;28;20019;-74
2022/06/06 14:03:17;;;;;;;13.23;4.22;;;;;;;26.97;82.62;101043.59;5117915;28;20367;-77